Time;durP1;ratioP1;P1;durP2;ratioP2;P2;SDS_P1;SDS_P2;PMS_P1;PMS_P2;Temp;Humidity;BMP_temperature;BMP_pressure;BME280_temperature;BME280_humidity;BME280_pressure;Samples;Min_cycle;Max_cycle;Signal;HPM_P1;HPM_P2
2021/07/04 04:00:34;;;;;;;11.13;8.30;;;18.20;99.90;;;;;;5864356;23;20479;-63
2021/07/04 04:03:00;;;;;;;9.50;8.80;;;18.30;99.90;;;;;;4976994;28;20450;-63
2021/07/04 04:05:27;;;;;;;9.40;8.70;;;18.30;99.90;;;;;;4976714;28;20459;-63
2021/07/04 04:07:54;;;;;;;9.50;8.70;;;18.30;99.90;;;;;;4976178;28;20937;-63
2021/07/04 04:10:21;;;;;;;8.03;7.40;;;18.30;99.90;;;;;;4976294;28;20463;-63
2021/07/04 04:12:47;;;;;;;9.87;9.17;;;18.40;99.90;;;;;;4976243;28;20454;-62
2021/07/04 04:15:14;;;;;;;9.60;8.73;;;18.50;99.90;;;;;;4976487;28;20459;-64
2021/07/04 04:17:42;;;;;;;8.57;7.97;;;18.40;99.90;;;;;;4976619;28;20459;-63
2021/07/04 04:20:11;;;;;;;8.57;7.77;;;18.50;99.90;;;;;;4987100;28;20434;-64
2021/07/04 04:22:37;;;;;;;8.90;8.30;;;18.60;99.90;;;;;;4987514;28;20475;-63
2021/07/04 04:25:05;;;;;;;8.30;7.70;;;18.70;99.90;;;;;;4976757;28;20477;-63
2021/07/04 04:27:32;;;;;;;8.37;7.77;;;18.80;99.90;;;;;;4975828;28;20455;-64
2021/07/04 04:29:59;;;;;;;8.73;7.83;;;18.90;99.90;;;;;;4976136;28;20461;-62
2021/07/04 04:32:25;;;;;;;8.53;7.83;;;19.00;99.90;;;;;;4976281;28;20481;-64
2021/07/04 04:34:53;;;;;;;7.50;7.00;;;19.00;99.90;;;;;;4999678;28;20458;-64
2021/07/04 04:37:20;;;;;;;8.20;7.50;;;19.00;99.90;;;;;;5000056;28;20443;-63
2021/07/04 04:39:47;;;;;;;8.60;7.90;;;18.90;99.90;;;;;;4999735;28;20494;-64
2021/07/04 04:42:13;;;;;;;8.97;8.27;;;19.00;99.90;;;;;;4989746;28;20491;-63
2021/07/04 04:44:41;;;;;;;9.20;8.30;;;19.00;99.90;;;;;;4975177;28;20455;-64
2021/07/04 04:47:08;;;;;;;8.57;7.93;;;19.10;99.90;;;;;;4976011;28;20463;-64
2021/07/04 04:49:35;;;;;;;9.63;8.93;;;19.00;99.90;;;;;;4997522;28;20434;-64
2021/07/04 04:52:04;;;;;;;8.40;7.60;;;19.10;99.90;;;;;;4986469;28;20470;-64
2021/07/04 04:54:31;;;;;;;8.43;7.73;;;19.10;99.90;;;;;;4976744;28;20459;-64
2021/07/04 04:57:05;;;;;;;10.67;8.90;;;19.10;99.90;;;;;;4976306;28;20462;-64
2021/07/04 04:59:32;;;;;;;8.47;7.77;;;19.00;99.90;;;;;;4975620;28;20466;-63
2021/07/04 05:01:59;;;;;;;10.80;8.80;;;18.90;99.90;;;;;;4975640;28;20490;-63
2021/07/04 05:04:26;;;;;;;8.90;8.20;;;19.10;99.90;;;;;;4975482;28;20961;-63
2021/07/04 05:06:52;;;;;;;10.47;9.20;;;19.10;99.90;;;;;;4975484;28;20459;-64
2021/07/04 05:09:20;;;;;;;9.57;8.77;;;19.20;99.90;;;;;;4975401;28;20454;-64
2021/07/04 05:11:48;;;;;;;13.87;7.97;;;19.20;99.90;;;;;;4975070;28;20482;-64
2021/07/04 05:14:15;;;;;;;10.60;9.80;;;19.10;99.90;;;;;;4975309;28;20816;-63
2021/07/04 05:16:42;;;;;;;8.70;8.10;;;19.10;99.90;;;;;;4975189;28;20459;-64
2021/07/04 05:19:10;;;;;;;9.10;8.30;;;19.10;99.90;;;;;;4975035;28;20490;-64
2021/07/04 05:21:38;;;;;;;9.27;8.07;;;19.20;99.90;;;;;;4975167;28;20479;-62
2021/07/04 05:24:06;;;;;;;9.53;8.80;;;19.20;99.90;;;;;;4975283;28;20459;-64
2021/07/04 05:26:34;;;;;;;9.57;8.87;;;19.20;99.90;;;;;;4975165;28;20530;-64
2021/07/04 05:29:01;;;;;;;9.30;8.60;;;19.30;99.90;;;;;;4974797;28;20946;-64
2021/07/04 05:31:29;;;;;;;8.13;7.53;;;19.40;99.90;;;;;;4979816;28;20455;-63
2021/07/04 05:33:55;;;;;;;8.60;8.00;;;19.40;99.90;;;;;;4998012;28;20545;-63
2021/07/04 05:36:22;;;;;;;8.70;8.00;;;19.50;99.90;;;;;;4997153;28;20430;-63
2021/07/04 05:38:49;;;;;;;9.53;8.63;;;19.60;99.90;;;;;;4997874;28;20478;-63
2021/07/04 05:41:17;;;;;;;8.27;7.70;;;19.60;99.90;;;;;;4997963;28;20450;-64
2021/07/04 05:43:46;;;;;;;9.43;8.47;;;19.60;99.90;;;;;;4989816;28;20451;-63
2021/07/04 05:46:13;;;;;;;8.17;7.50;;;19.70;99.90;;;;;;4977295;28;20459;-63
2021/07/04 05:48:42;;;;;;;8.33;7.63;;;19.70;99.90;;;;;;4976991;28;20457;-63
2021/07/04 05:51:09;;;;;;;8.07;7.57;;;19.90;99.90;;;;;;4976273;28;20483;-63
2021/07/04 05:53:36;;;;;;;7.90;7.30;;;19.90;99.90;;;;;;4979322;28;20439;-63
2021/07/04 05:56:03;;;;;;;7.50;6.80;;;20.00;99.90;;;;;;4994818;28;20455;-63
2021/07/04 05:58:29;;;;;;;6.70;6.20;;;20.20;99.90;;;;;;4985458;28;20474;-64
2021/07/04 06:00:57;;;;;;;7.27;6.57;;;20.30;99.90;;;;;;4981103;28;20487;-64
2021/07/04 06:03:24;;;;;;;7.80;7.30;;;20.50;99.90;;;;;;4978636;28;20462;-64
2021/07/04 06:05:51;;;;;;;8.40;7.00;;;20.60;99.90;;;;;;4978498;28;20458;-64
2021/07/04 06:08:17;;;;;;;10.30;7.10;;;20.60;99.90;;;;;;4978439;28;20435;-64
2021/07/04 06:10:45;;;;;;;7.03;6.43;;;20.80;99.90;;;;;;4978270;28;20829;-62
2021/07/04 06:13:12;;;;;;;7.03;6.50;;;21.00;99.90;;;;;;4978504;28;20497;-64
2021/07/04 06:15:39;;;;;;;7.50;6.87;;;21.00;99.90;;;;;;4978333;28;20465;-63
2021/07/04 06:18:07;;;;;;;6.83;6.23;;;21.00;99.90;;;;;;4978076;28;20459;-64
2021/07/04 06:20:34;;;;;;;7.23;6.67;;;21.10;99.90;;;;;;4977985;28;20478;-63
2021/07/04 06:23:01;;;;;;;8.20;6.77;;;21.20;99.90;;;;;;4978704;28;20462;-64
2021/07/04 06:25:27;;;;;;;7.30;6.80;;;21.30;99.90;;;;;;4978786;28;20458;-63
2021/07/04 06:27:54;;;;;;;6.80;6.20;;;21.40;99.90;;;;;;4977635;28;20450;-63
2021/07/04 06:30:21;;;;;;;8.47;6.70;;;21.50;99.90;;;;;;4977859;28;20455;-64
2021/07/04 06:32:48;;;;;;;7.23;6.53;;;21.70;99.90;;;;;;4977813;28;20468;-63
2021/07/04 06:35:17;;;;;;;7.13;6.63;;;21.80;99.90;;;;;;4977995;28;20462;-63
2021/07/04 06:37:44;;;;;;;7.60;6.80;;;21.90;99.90;;;;;;4977775;28;20466;-63
2021/07/04 06:40:13;;;;;;;7.67;5.80;;;22.10;99.90;;;;;;4977620;28;20478;-63
2021/07/04 06:42:40;;;;;;;7.23;6.70;;;22.00;99.90;;;;;;4977684;28;20455;-64
2021/07/04 06:45:09;;;;;;;6.50;6.10;;;21.90;99.90;;;;;;4978391;28;20465;-64
2021/07/04 06:47:36;;;;;;;6.77;6.03;;;22.10;99.90;;;;;;4979336;28;20451;-63
2021/07/04 06:50:03;;;;;;;6.70;6.10;;;22.30;99.90;;;;;;4977758;28;20941;-63
2021/07/04 06:52:31;;;;;;;7.23;6.63;;;22.60;99.90;;;;;;4978075;28;20479;-63
2021/07/04 06:54:58;;;;;;;5.70;5.20;;;22.90;99.90;;;;;;4977578;28;20454;-64
2021/07/04 06:57:28;;;;;;;6.70;6.20;;;23.20;99.90;;;;;;4977256;28;20929;-64
2021/07/04 06:59:57;;;;;;;6.53;6.13;;;23.40;99.90;;;;;;4977256;28;20478;-64
2021/07/04 07:02:23;;;;;;;6.37;5.93;;;23.90;99.90;;;;;;4978140;28;20486;-63
2021/07/04 07:04:51;;;;;;;6.57;6.17;;;24.30;99.90;;;;;;4977384;28;20459;-64
2021/07/04 07:07:17;;;;;;;6.77;6.13;;;23.90;99.90;;;;;;4977364;28;20466;-64
2021/07/04 07:09:46;;;;;;;6.67;6.17;;;24.00;99.90;;;;;;4977564;28;20454;-64
2021/07/04 07:12:13;;;;;;;6.07;5.47;;;24.10;99.90;;;;;;4977111;28;20985;-64
2021/07/04 07:14:39;;;;;;;6.40;5.90;;;24.30;99.90;;;;;;4977033;28;20459;-64
2021/07/04 07:17:06;;;;;;;6.77;6.10;;;24.40;99.90;;;;;;4978479;28;20450;-64
2021/07/04 07:19:33;;;;;;;6.70;6.20;;;24.60;99.90;;;;;;4978857;28;20989;-64
2021/07/04 07:22:00;;;;;;;6.60;6.10;;;24.60;99.90;;;;;;4978069;28;20478;-65
2021/07/04 07:24:27;;;;;;;5.87;5.37;;;24.70;99.90;;;;;;4977846;28;20482;-64
2021/07/04 07:26:55;;;;;;;6.13;5.30;;;25.00;99.90;;;;;;4978085;28;20849;-64
2021/07/04 07:29:22;;;;;;;6.63;6.10;;;25.20;99.90;;;;;;4982145;28;20445;-64
2021/07/04 07:31:49;;;;;;;6.17;5.77;;;25.70;99.90;;;;;;4981326;28;20478;-64
2021/07/04 07:34:16;;;;;;;5.60;5.20;;;26.20;99.90;;;;;;4992043;28;20458;-64
2021/07/04 07:36:42;;;;;;;5.53;5.07;;;27.10;99.90;;;;;;4987560;28;20446;-64
2021/07/04 07:39:09;;;;;;;5.40;5.10;;;27.90;99.90;;;;;;4978787;28;20866;-64
2021/07/04 07:41:36;;;;;;;5.50;5.20;;;27.80;99.90;;;;;;4977168;28;20478;-64
2021/07/04 07:44:04;;;;;;;5.70;5.30;;;27.70;99.90;;;;;;4976966;28;20980;-64
2021/07/04 07:46:31;;;;;;;5.97;5.53;;;28.00;99.90;;;;;;4977270;28;20454;-63
2021/07/04 07:48:58;;;;;;;5.50;5.10;;;28.50;99.90;;;;;;4977179;28;20458;-64
2021/07/04 07:51:24;;;;;;;5.20;4.90;;;29.00;99.90;;;;;;4976532;28;20478;-63
2021/07/04 07:53:51;;;;;;;5.00;4.70;;;29.30;99.90;;;;;;4976231;28;20960;-63
2021/07/04 07:56:18;;;;;;;5.83;5.50;;;29.60;99.90;;;;;;4976437;28;20458;-63
2021/07/04 07:58:45;;;;;;;4.87;4.57;;;29.60;99.90;;;;;;4976444;28;20836;-63
2021/07/04 08:01:15;;;;;;;5.20;4.80;;;30.20;99.60;;;;;;4976281;28;21079;-63
2021/07/04 08:03:42;;;;;;;5.40;5.10;;;30.90;97.60;;;;;;4976608;28;20490;-63
2021/07/04 08:06:09;;;;;;;5.37;4.80;;;31.60;96.80;;;;;;4976141;28;20459;-64
2021/07/04 08:08:36;;;;;;;5.50;5.10;;;32.10;95.90;;;;;;4976097;28;20799;-64
2021/07/04 08:11:03;;;;;;;4.83;4.57;;;31.50;94.30;;;;;;4976133;28;20478;-64
2021/07/04 08:13:30;;;;;;;5.50;5.20;;;31.70;94.50;;;;;;4976456;28;20463;-63
2021/07/04 08:15:57;;;;;;;7.00;6.40;;;32.00;93.20;;;;;;4976337;28;20972;-63
2021/07/04 08:18:25;;;;;;;5.97;5.50;;;31.60;92.80;;;;;;4980622;28;20482;-63
2021/07/04 08:20:52;;;;;;;6.60;5.40;;;31.80;95.00;;;;;;4991261;28;20550;-64
2021/07/04 08:23:19;;;;;;;4.73;4.43;;;31.70;93.00;;;;;;4992188;28;20960;-63
2021/07/04 08:25:45;;;;;;;5.30;4.90;;;32.20;91.50;;;;;;4981713;28;20818;-63
2021/07/04 08:28:12;;;;;;;5.13;4.70;;;32.50;90.20;;;;;;4976360;28;20454;-64
2021/07/04 08:30:39;;;;;;;5.50;5.10;;;32.50;90.20;;;;;;4975643;28;20970;-64
2021/07/04 08:33:06;;;;;;;5.77;5.27;;;33.10;88.00;;;;;;4975765;28;20465;-63
2021/07/04 08:35:35;;;;;;;5.97;5.67;;;33.70;84.80;;;;;;4975726;28;20462;-63
2021/07/04 08:38:02;;;;;;;5.90;5.60;;;33.00;82.90;;;;;;4975687;28;20829;-63
2021/07/04 08:40:29;;;;;;;5.70;5.20;;;32.80;83.70;;;;;;4975505;28;20475;-63
2021/07/04 08:42:56;;;;;;;6.00;5.50;;;32.10;85.60;;;;;;4975786;28;20450;-64
2021/07/04 08:45:22;;;;;;;5.70;5.30;;;31.70;86.00;;;;;;4975688;28;20463;-63
2021/07/04 08:47:49;;;;;;;5.33;5.03;;;31.80;87.30;;;;;;4975669;28;20462;-63
2021/07/04 08:50:16;;;;;;;5.60;5.30;;;32.40;86.90;;;;;;4975711;28;20455;-62
2021/07/04 08:52:44;;;;;;;5.47;5.07;;;32.90;84.40;;;;;;4975781;28;20473;-63
2021/07/04 08:55:12;;;;;;;5.23;4.93;;;33.10;83.30;;;;;;4975500;28;20458;-63
2021/07/04 08:57:38;;;;;;;5.67;5.27;;;33.60;81.60;;;;;;4975781;28;20553;-63
2021/07/04 09:00:07;;;;;;;5.97;5.67;;;33.10;84.40;;;;;;4974986;28;20993;-63
2021/07/04 09:02:37;;;;;;;4.97;4.67;;;33.30;78.70;;;;;;4978957;28;21029;-63
2021/07/04 09:05:06;;;;;;;5.40;5.10;;;33.70;79.10;;;;;;4982007;28;20454;-64
2021/07/04 09:07:34;;;;;;;5.10;4.70;;;33.90;77.90;;;;;;4975934;28;20824;-64
2021/07/04 09:10:04;;;;;;;5.47;5.17;;;33.90;79.30;;;;;;4975113;28;20946;-63
2021/07/04 09:12:38;;;;;;;6.90;5.70;;;33.70;78.00;;;;;;4975317;28;20478;-63
2021/07/04 09:15:12;;;;;;;5.63;5.33;;;32.60;79.40;;;;;;4975228;28;20458;-62
2021/07/04 09:17:41;;;;;;;5.10;4.80;;;32.00;78.60;;;;;;4975371;28;20515;-63
2021/07/04 09:20:11;;;;;;;4.40;4.20;;;31.50;79.90;;;;;;4974864;28;21001;-63
2021/07/04 09:22:40;;;;;;;5.00;4.50;;;31.00;81.00;;;;;;4975301;28;20459;-63
2021/07/04 09:25:11;;;;;;;5.30;4.93;;;31.00;82.10;;;;;;4975442;28;20458;-63
2021/07/04 09:27:39;;;;;;;5.13;4.87;;;30.40;83.10;;;;;;4974844;28;20834;-62
2021/07/04 09:30:10;;;;;;;5.80;5.40;;;30.10;86.50;;;;;;4977882;28;20939;-61
2021/07/04 09:32:36;;;;;;;6.20;5.80;;;29.30;88.10;;;;;;4979721;28;20474;-62
2021/07/04 09:35:06;;;;;;;5.73;5.43;;;28.90;90.10;;;;;;4979284;28;20463;-63
2021/07/04 09:37:36;;;;;;;6.03;5.63;;;28.20;91.30;;;;;;4979458;28;20461;-61
2021/07/04 09:40:12;;;;;;;5.33;5.03;;;27.70;92.20;;;;;;4979214;28;20483;-63
2021/07/04 09:43:15;;;;;;;5.70;5.20;;;27.40;92.90;;;;;;4978848;28;20922;-63
2021/07/04 09:45:51;;;;;;;5.93;5.53;;;27.20;95.10;;;;;;4919219;29;20437;-63
2021/07/04 09:48:21;;;;;;;4.77;4.40;;;26.40;94.30;;;;;;4920583;29;20461;-62
2021/07/04 09:50:50;;;;;;;4.53;4.33;;;25.90;95.80;;;;;;4951906;28;20478;-63
2021/07/04 09:53:18;;;;;;;6.27;5.33;;;25.60;97.60;;;;;;4978630;28;20462;-62
2021/07/04 09:55:50;;;;;;;4.97;4.67;;;25.10;99.90;;;;;;4978952;28;20449;-63
2021/07/04 09:58:17;;;;;;;5.37;4.87;;;24.80;99.90;;;;;;4978846;28;20530;-63
2021/07/04 10:00:46;;;;;;;4.90;4.60;;;24.70;99.90;;;;;;4978148;28;20490;-63
2021/07/04 10:03:15;;;;;;;5.43;4.97;;;24.80;99.90;;;;;;4978491;28;20447;-63
2021/07/04 10:05:44;;;;;;;7.63;7.10;;;24.80;99.90;;;;;;4978409;28;20881;-63
2021/07/04 10:08:25;;;;;;;6.10;5.70;;;25.00;99.90;;;;;;4978739;28;20454;-63
2021/07/04 10:10:55;;;;;;;4.93;4.63;;;25.20;99.90;;;;;;4978465;28;20474;-63
2021/07/04 10:13:22;;;;;;;5.17;4.77;;;25.30;99.90;;;;;;4989375;28;20434;-63
2021/07/04 10:15:49;;;;;;;4.83;4.53;;;25.50;99.90;;;;;;5001943;28;20450;-63
2021/07/04 10:18:18;;;;;;;4.20;3.90;;;26.10;99.90;;;;;;5001487;28;20423;-63
2021/07/04 10:20:46;;;;;;;4.03;3.83;;;26.90;99.90;;;;;;4997369;28;20481;-63
2021/07/04 10:23:14;;;;;;;4.27;3.97;;;27.90;98.10;;;;;;4996173;28;20464;-63
2021/07/04 10:25:43;;;;;;;3.73;3.53;;;28.40;96.70;;;;;;4985928;28;20445;-65
2021/07/04 10:28:13;;;;;;;4.10;3.80;;;28.80;96.00;;;;;;4978482;28;20938;-64
2021/07/04 10:30:41;;;;;;;4.30;4.10;;;28.90;93.20;;;;;;4978337;28;20895;-63
2021/07/04 10:33:15;;;;;;;4.53;4.13;;;28.80;92.30;;;;;;4978270;28;20439;-64
2021/07/04 10:36:16;;;;;;;4.23;4.03;;;28.80;93.00;;;;;;4977944;28;20442;-63
2021/07/04 10:38:54;;;;;;;4.57;4.37;;;28.50;93.40;;;;;;4928889;29;20433;-63
2021/07/04 10:41:23;;;;;;;4.67;4.23;;;28.00;93.20;;;;;;4921774;29;20540;-63
2021/07/04 10:44:04;;;;;;;4.30;4.10;;;27.90;94.40;;;;;;4950973;28;20934;-63
2021/07/04 10:47:03;;;;;;;4.03;3.83;;;27.50;95.50;;;;;;4979090;28;20559;-62
2021/07/04 10:49:36;;;;;;;5.10;4.77;;;27.30;95.40;;;;;;4977842;28;20852;-64
2021/07/04 10:52:06;;;;;;;5.17;4.77;;;27.30;96.60;;;;;;4977669;28;20485;-64
2021/07/04 10:54:54;;;;;;;4.70;4.40;;;27.40;96.80;;;;;;4977918;28;20446;-63
2021/07/04 10:57:25;;;;;;;4.53;4.20;;;27.30;95.90;;;;;;4977719;28;20828;-64
2021/07/04 11:00:21;;;;;;;5.90;5.50;;;27.50;96.80;;;;;;4977555;28;20554;-62
2021/07/04 11:02:50;;;;;;;4.17;3.97;;;27.60;96.00;;;;;;4978082;28;20435;-64
2021/07/04 11:05:18;;;;;;;5.30;4.07;;;27.90;95.60;;;;;;4977323;28;20874;-63
2021/07/04 11:08:20;;;;;;;4.53;4.23;;;28.00;96.30;;;;;;4977356;28;20456;-62
2021/07/04 11:11:09;;;;;;;7.37;4.77;;;27.70;95.50;;;;;;4977785;28;20540;-62
2021/07/04 11:13:45;;;;;;;4.60;4.30;;;27.80;96.00;;;;;;4972945;28;20480;-62
2021/07/04 11:16:26;;;;;;;4.70;4.40;;;27.80;94.60;;;;;;4977244;28;20478;-62
2021/07/04 11:19:10;;;;;;;4.10;3.80;;;27.50;94.10;;;;;;4977816;28;20864;-63
2021/07/04 11:21:52;;;;;;;4.90;4.60;;;27.00;95.00;;;;;;4976732;28;20828;-64
2021/07/04 11:24:21;;;;;;;5.00;4.70;;;26.90;97.20;;;;;;4977253;28;20485;-64
2021/07/04 11:27:24;;;;;;;4.47;4.17;;;26.80;97.20;;;;;;4977139;28;20530;-64
2021/07/04 11:30:28;;;;;;;4.80;4.53;;;26.70;97.30;;;;;;4977154;28;20423;-64
2021/07/04 11:33:28;;;;;;;4.20;4.00;;;26.30;99.30;;;;;;4977325;28;20792;-64
2021/07/04 11:36:00;;;;;;;4.47;4.17;;;26.30;99.90;;;;;;4978795;28;20478;-64
2021/07/04 11:38:29;;;;;;;5.07;4.57;;;26.00;99.90;;;;;;4977458;28;20434;-64
2021/07/04 11:40:56;;;;;;;4.23;4.03;;;25.80;99.90;;;;;;4980184;28;20486;-63
2021/07/04 11:43:25;;;;;;;4.70;4.40;;;26.10;99.90;;;;;;4978442;28;20458;-64
2021/07/04 11:45:54;;;;;;;4.70;4.30;;;26.30;99.90;;;;;;4977185;28;20831;-64
2021/07/04 11:48:22;;;;;;;5.20;4.80;;;26.50;99.10;;;;;;4976706;28;20443;-63
2021/07/04 11:50:51;;;;;;;4.23;4.03;;;26.60;99.50;;;;;;4976572;28;20826;-63
2021/07/04 11:53:20;;;;;;;5.33;4.90;;;26.70;99.90;;;;;;4975565;28;20455;-63
2021/07/04 11:56:00;;;;;;;5.20;4.90;;;26.90;99.90;;;;;;4977321;28;20465;-64
2021/07/04 11:58:29;;;;;;;4.43;4.13;;;27.00;98.40;;;;;;4976694;28;20446;-64
2021/07/04 12:00:56;;;;;;;4.63;4.33;;;27.00;99.90;;;;;;4977040;28;20482;-64
2021/07/04 12:03:24;;;;;;;4.50;4.30;;;27.20;99.90;;;;;;4977766;28;20461;-64
2021/07/04 12:05:52;;;;;;;5.23;4.93;;;27.30;99.90;;;;;;4976963;28;20941;-64
2021/07/04 12:08:20;;;;;;;6.07;5.47;;;27.50;99.90;;;;;;4976910;28;20966;-64
2021/07/04 12:10:51;;;;;;;5.33;5.03;;;27.30;99.90;;;;;;4976432;28;20467;-65
2021/07/04 12:13:18;;;;;;;5.47;5.07;;;27.50;99.90;;;;;;4976960;28;20513;-64
2021/07/04 12:15:49;;;;;;;5.00;4.70;;;27.50;99.90;;;;;;4977626;28;20467;-64
2021/07/04 12:18:17;;;;;;;5.80;5.40;;;27.40;99.90;;;;;;4976618;28;20499;-63
2021/07/04 12:21:01;;;;;;;6.13;5.60;;;27.40;99.90;;;;;;4976922;28;20493;-64
2021/07/04 12:23:29;;;;;;;6.17;5.77;;;27.30;99.90;;;;;;4976100;28;20449;-63
2021/07/04 12:25:56;;;;;;;6.30;5.70;;;27.20;99.90;;;;;;4976376;28;20461;-63
2021/07/04 12:28:23;;;;;;;6.10;5.70;;;27.20;99.90;;;;;;4976186;28;20466;-64
2021/07/04 12:30:52;;;;;;;6.50;6.10;;;27.10;99.90;;;;;;4976680;28;20475;-64
2021/07/04 12:33:22;;;;;;;6.80;6.30;;;27.00;99.90;;;;;;4976544;28;20465;-64
2021/07/04 12:35:51;;;;;;;6.93;6.43;;;26.80;99.90;;;;;;4976759;28;20450;-64
2021/07/04 12:38:20;;;;;;;6.37;5.80;;;26.70;99.90;;;;;;4977806;28;20837;-64
2021/07/04 12:40:53;;;;;;;6.63;6.13;;;26.70;99.90;;;;;;4975932;28;20489;-63
2021/07/04 12:43:22;;;;;;;6.30;5.80;;;26.70;99.90;;;;;;4975424;28;20459;-64
2021/07/04 12:45:50;;;;;;;6.17;5.77;;;26.70;99.90;;;;;;4975637;28;20458;-63
2021/07/04 12:48:19;;;;;;;6.60;6.10;;;26.70;99.90;;;;;;4975600;28;20455;-62
2021/07/04 12:50:54;;;;;;;9.13;6.00;;;26.70;99.90;;;;;;4975391;28;20529;-64
2021/07/04 12:53:21;;;;;;;7.03;6.43;;;26.90;99.90;;;;;;4975668;28;20454;-64
2021/07/04 12:55:52;;;;;;;6.30;5.80;;;27.20;99.90;;;;;;4975592;28;20459;-63
2021/07/04 12:58:37;;;;;;;5.83;5.43;;;27.40;99.90;;;;;;4975399;28;20443;-63
2021/07/04 13:01:19;;;;;;;5.63;5.33;;;27.50;99.90;;;;;;4975246;28;20501;-64
2021/07/04 13:03:49;;;;;;;5.43;5.13;;;27.80;99.90;;;;;;4975033;28;20810;-64
2021/07/04 13:06:44;;;;;;;7.00;6.60;;;28.00;99.90;;;;;;4976032;28;20455;-65
2021/07/04 13:09:16;;;;;;;6.30;5.80;;;28.00;99.90;;;;;;4976042;28;20439;-65
2021/07/04 13:11:56;;;;;;;6.07;5.60;;;28.20;99.90;;;;;;4975649;28;20474;-64
2021/07/04 13:14:36;;;;;;;5.90;5.50;;;28.50;99.90;;;;;;4976137;28;20442;-63
2021/07/04 13:17:05;;;;;;;6.40;5.80;;;28.20;99.90;;;;;;4977948;28;20446;-63
2021/07/04 13:19:32;;;;;;;7.70;7.20;;;28.20;99.90;;;;;;4997148;28;20465;-65
2021/07/04 13:21:59;;;;;;;6.03;5.73;;;28.10;99.90;;;;;;4998390;28;20486;-64
2021/07/04 13:24:29;;;;;;;6.47;6.07;;;27.80;99.90;;;;;;4989278;28;20790;-63
2021/07/04 13:26:59;;;;;;;7.40;6.90;;;27.70;99.90;;;;;;4984319;28;20446;-64
2021/07/04 13:29:28;;;;;;;6.63;6.23;;;27.40;99.90;;;;;;4980951;28;20440;-64
2021/07/04 13:32:13;;;;;;;6.47;5.97;;;27.40;99.90;;;;;;4977282;28;20474;-64
2021/07/04 13:34:42;;;;;;;6.60;6.00;;;27.20;99.90;;;;;;4977590;28;20450;-64
2021/07/04 13:37:15;;;;;;;6.30;5.90;;;26.90;99.90;;;;;;4976384;28;20450;-64
2021/07/04 13:39:53;;;;;;;6.60;6.20;;;26.90;99.90;;;;;;4975622;28;20447;-63
2021/07/04 13:42:21;;;;;;;6.20;5.80;;;26.90;99.90;;;;;;4975552;28;20490;-63
2021/07/04 13:44:48;;;;;;;6.53;6.03;;;27.00;99.90;;;;;;4975605;28;20458;-64
2021/07/04 13:47:15;;;;;;;6.70;6.20;;;27.10;99.90;;;;;;4975678;28;20454;-65
2021/07/04 13:49:42;;;;;;;6.60;6.20;;;27.20;99.90;;;;;;4975975;28;20458;-63
2021/07/04 13:52:09;;;;;;;6.17;5.70;;;27.00;99.90;;;;;;4975813;28;20817;-63
2021/07/04 13:54:36;;;;;;;5.87;5.47;;;26.80;99.90;;;;;;4975028;28;20827;-64
2021/07/04 13:57:06;;;;;;;6.03;5.63;;;26.50;99.90;;;;;;4975146;28;20454;-64
2021/07/04 13:59:34;;;;;;;5.13;4.83;;;26.40;99.90;;;;;;4975983;28;20553;-64
2021/07/04 14:02:01;;;;;;;5.47;5.17;;;26.10;99.90;;;;;;4974863;28;20993;-64
2021/07/04 14:04:28;;;;;;;5.90;5.50;;;25.80;99.90;;;;;;4977176;28;20826;-64
2021/07/04 14:06:55;;;;;;;5.83;5.40;;;25.60;99.90;;;;;;4977758;28;20501;-64
2021/07/04 14:09:22;;;;;;;4.70;4.40;;;25.50;99.90;;;;;;4975650;28;20521;-64
2021/07/04 14:11:49;;;;;;;3.93;3.73;;;25.70;99.90;;;;;;4976416;28;20474;-64
2021/07/04 14:14:16;;;;;;;4.50;4.20;;;25.80;99.90;;;;;;4975206;28;20463;-65
2021/07/04 14:16:45;;;;;;;4.30;3.90;;;25.90;99.90;;;;;;4976796;28;20465;-64
2021/07/04 14:19:12;;;;;;;4.20;4.00;;;26.10;99.90;;;;;;4980291;28;20442;-64
2021/07/04 14:21:39;;;;;;;3.70;3.50;;;26.20;99.90;;;;;;4979356;28;20517;-63
2021/07/04 14:24:06;;;;;;;4.23;3.93;;;26.20;99.90;;;;;;4978861;28;20454;-64
2021/07/04 14:26:33;;;;;;;3.70;3.50;;;26.20;99.90;;;;;;4978375;28;20454;-64
2021/07/04 14:29:00;;;;;;;3.60;3.40;;;26.00;99.90;;;;;;4979029;28;20470;-63
2021/07/04 14:31:26;;;;;;;4.00;3.80;;;26.00;99.90;;;;;;4978148;28;20977;-63
2021/07/04 14:33:54;;;;;;;3.53;3.33;;;25.90;99.90;;;;;;4978927;28;20454;-64
2021/07/04 14:36:21;;;;;;;3.63;3.50;;;26.00;99.90;;;;;;4979572;28;20454;-64
2021/07/04 14:38:48;;;;;;;3.80;3.60;;;25.90;99.90;;;;;;4979267;28;20465;-64
2021/07/04 14:41:15;;;;;;;3.77;3.57;;;25.80;99.90;;;;;;4978524;28;20479;-63
2021/07/04 14:43:41;;;;;;;3.50;3.40;;;25.70;99.90;;;;;;4979842;28;20458;-64
2021/07/04 14:46:08;;;;;;;3.83;3.60;;;25.50;99.90;;;;;;4980303;28;20934;-64
2021/07/04 14:48:36;;;;;;;3.80;3.60;;;25.40;99.90;;;;;;4977709;28;20816;-64
2021/07/04 14:51:06;;;;;;;4.03;3.83;;;25.30;99.90;;;;;;4978387;28;20478;-63
2021/07/04 14:53:37;;;;;;;3.77;3.57;;;25.30;99.90;;;;;;4979047;28;20454;-63
2021/07/04 14:56:08;;;;;;;3.80;3.60;;;25.40;99.90;;;;;;4978435;28;20443;-64
2021/07/04 14:58:36;;;;;;;4.00;3.80;;;25.40;99.90;;;;;;4979571;28;20493;-64
2021/07/04 15:01:03;;;;;;;4.37;4.07;;;25.40;99.90;;;;;;4977504;28;20497;-63
2021/07/04 15:03:30;;;;;;;6.93;4.60;;;25.20;99.90;;;;;;4977793;28;20820;-63
2021/07/04 15:05:58;;;;;;;4.20;3.90;;;25.30;99.90;;;;;;4978912;28;20465;-64
2021/07/04 15:08:26;;;;;;;4.00;3.80;;;25.40;99.90;;;;;;4977843;28;20970;-64
2021/07/04 15:10:52;;;;;;;4.40;4.10;;;25.50;99.90;;;;;;4978176;28;20475;-64
2021/07/04 15:13:19;;;;;;;5.27;4.97;;;25.40;99.90;;;;;;4978915;28;20482;-64
2021/07/04 15:15:46;;;;;;;4.03;3.83;;;25.50;99.90;;;;;;4979512;28;20447;-64
2021/07/04 15:18:13;;;;;;;4.87;4.57;;;25.40;99.90;;;;;;4977435;28;20450;-64
2021/07/04 15:20:39;;;;;;;4.17;3.97;;;25.30;99.90;;;;;;4977222;28;20490;-64
2021/07/04 15:23:06;;;;;;;4.37;4.17;;;25.50;99.90;;;;;;4977262;28;20839;-64
2021/07/04 15:25:34;;;;;;;4.20;4.00;;;25.40;99.90;;;;;;4977144;28;20459;-64
2021/07/04 15:28:01;;;;;;;4.90;4.50;;;25.50;99.90;;;;;;4976706;28;20821;-64
2021/07/04 15:30:28;;;;;;;4.77;4.47;;;25.50;99.90;;;;;;4976819;28;20455;-64
2021/07/04 15:32:55;;;;;;;4.73;4.43;;;25.40;99.90;;;;;;4977197;28;20489;-64
2021/07/04 15:35:23;;;;;;;4.70;4.40;;;25.40;99.90;;;;;;4977064;28;20465;-64
2021/07/04 15:37:50;;;;;;;4.40;4.20;;;25.30;99.90;;;;;;4976960;28;20454;-64
2021/07/04 15:40:21;;;;;;;4.37;4.00;;;25.40;99.90;;;;;;4976824;28;20461;-64
2021/07/04 15:42:49;;;;;;;4.50;4.30;;;25.30;99.90;;;;;;4976904;28;20517;-65
2021/07/04 15:45:16;;;;;;;4.97;4.67;;;25.30;99.90;;;;;;4976814;28;20455;-63
2021/07/04 15:47:43;;;;;;;4.43;4.20;;;25.40;99.90;;;;;;4976971;28;20463;-62
2021/07/04 15:50:12;;;;;;;4.50;4.10;;;25.40;99.90;;;;;;4976444;28;20463;-62
2021/07/04 15:52:39;;;;;;;4.20;4.00;;;25.50;99.90;;;;;;4976532;28;20475;-63
2021/07/04 15:55:07;;;;;;;3.50;3.30;;;25.40;99.90;;;;;;4976471;28;20510;-62
2021/07/04 15:57:34;;;;;;;4.00;3.70;;;25.10;99.90;;;;;;4976646;28;20458;-61
2021/07/04 16:00:02;;;;;;;3.87;3.67;;;25.00;99.90;;;;;;4976305;28;20463;-63
2021/07/04 16:02:28;;;;;;;4.87;4.37;;;24.70;99.90;;;;;;4976026;28;20490;-61
2021/07/04 16:04:55;;;;;;;4.07;3.77;;;24.60;99.90;;;;;;4976682;28;20466;-61
2021/07/04 16:07:22;;;;;;;4.57;4.37;;;24.50;99.90;;;;;;4976390;28;20535;-63
2021/07/04 16:09:48;;;;;;;4.67;4.37;;;24.30;99.90;;;;;;4976508;28;20455;-63
2021/07/04 16:12:15;;;;;;;3.00;2.80;;;24.20;99.90;;;;;;4975995;28;20821;-62
2021/07/04 16:14:42;;;;;;;4.00;2.80;;;23.70;99.90;;;;;;4976413;28;20451;-63
2021/07/04 16:17:10;;;;;;;2.40;2.20;;;23.40;99.90;;;;;;4979541;28;20876;-63
2021/07/04 16:19:37;;;;;;;1.20;1.20;;;23.00;99.90;;;;;;4987314;28;20505;-63
2021/07/04 16:22:05;;;;;;;2.53;1.80;;;22.70;99.90;;;;;;4988258;28;20483;-62
2021/07/04 16:24:32;;;;;;;2.00;1.80;;;22.40;99.90;;;;;;4983767;28;20854;-62
2021/07/04 16:26:59;;;;;;;1.30;1.20;;;22.20;99.90;;;;;;4975902;28;20490;-62
2021/07/04 16:29:27;;;;;;;1.80;1.50;;;22.00;99.90;;;;;;4976067;28;20459;-63
2021/07/04 16:31:54;;;;;;;1.63;1.53;;;22.10;99.90;;;;;;4975962;28;20477;-64
2021/07/04 16:34:22;;;;;;;1.40;1.40;;;22.10;99.90;;;;;;4978282;28;20787;-64
2021/07/04 16:36:49;;;;;;;1.70;1.60;;;22.10;99.90;;;;;;4977431;28;20481;-63
2021/07/04 16:39:16;;;;;;;1.63;1.50;;;22.00;99.90;;;;;;4975610;28;20458;-63
2021/07/04 16:41:43;;;;;;;1.50;1.50;;;21.90;99.90;;;;;;4975896;28;20482;-64
2021/07/04 16:44:10;;;;;;;1.63;1.53;;;21.60;99.90;;;;;;4975852;28;20462;-63
2021/07/04 16:46:38;;;;;;;1.00;1.00;;;21.40;99.90;;;;;;4975722;28;20485;-62
2021/07/04 16:49:05;;;;;;;1.07;1.00;;;21.30;99.90;;;;;;4975547;28;20911;-63
2021/07/04 16:51:33;;;;;;;1.10;1.10;;;21.30;99.90;;;;;;4975560;28;20839;-63
2021/07/04 16:54:00;;;;;;;2.00;1.40;;;21.10;99.90;;;;;;4975780;28;20454;-63
2021/07/04 16:56:27;;;;;;;1.33;1.33;;;20.90;99.90;;;;;;4976353;28;20533;-62